Terminal Aerodrome Forecast
Issued by NWS

Home | Current Version | Previous Version | Text Only | Print | Product List | Glossary On
Versions: 1 2 3 4 5 6 7 8 9 10 11 12 13 14 15 16
000
FTUS43 KDLH 190208 AAA
TAFBRD
TAF AMD
KBRD 190208Z 1902/1924 25009KT P6SM SKC
     FM190300 25005KT P6SM FEW200 WS020/29035KT
     FM190700 25005KT P6SM FEW200
     FM191800 20009G19KT P6SM SKC=

USA.gov is the U.S. government's official web portal to all federal, state and local government web resources and services.